Terminal Aerodrome Forecast
Issued by NWS

Home | Current Version | Previous Version | Graphics & Text | Print | Product List | Glossary On
Versions: 1 2 3 4 5 6 7 8 9 10 11 12 13 14 15 16 17 18 19 20 21 22 23 24 25
000
FTUS43 KGRB 291422 AAC
TAFRHI
TAF AMD
KRHI 291422Z 2914/3012 VRB03KT P6SM FEW045 SCT070 BKN120
      TEMPO 2914/2916 -SHRA BKN045
     FM291600 21007KT P6SM SCT024 BKN060
     FM300000 22004KT P6SM SCT060 BKN090
     FM300600 23003KT 5SM BR BKN045 OVC080
     FM300900 25003KT 3SM BR BKN040=

USA.gov is the U.S. government's official web portal to all federal, state and local government web resources and services.